sensor_id;sensor_type;location;lat;lon;timestamp;P1;durP1;ratioP1;P2;durP2;ratioP2
67500;SDS011;54349;52.528;19.760;2022-09-09T00:02:08;3.80;;;2.20;;
67500;SDS011;54349;52.528;19.760;2022-09-09T00:04:59;3.90;;;2.00;;
67500;SDS011;54349;52.528;19.760;2022-09-09T00:07:43;4.70;;;2.60;;
67500;SDS011;54349;52.528;19.760;2022-09-09T00:10:42;4.50;;;2.40;;
67500;SDS011;54349;52.528;19.760;2022-09-09T00:16:03;5.90;;;2.50;;
67500;SDS011;54349;52.528;19.760;2022-09-09T00:21:38;4.30;;;2.70;;
67500;SDS011;54349;52.528;19.760;2022-09-09T00:24:26;5.10;;;2.80;;
67500;SDS011;54349;52.528;19.760;2022-09-09T00:27:31;4.80;;;2.80;;
67500;SDS011;54349;52.528;19.760;2022-09-09T00:32:55;6.80;;;2.70;;
67500;SDS011;54349;52.528;19.760;2022-09-09T00:35:34;4.70;;;2.40;;
67500;SDS011;54349;52.528;19.760;2022-09-09T00:38:25;5.50;;;3.00;;
67500;SDS011;54349;52.528;19.760;2022-09-09T00:44:00;4.80;;;2.60;;
67500;SDS011;54349;52.528;19.760;2022-09-09T00:55:16;5.70;;;2.70;;
67500;SDS011;54349;52.528;19.760;2022-09-09T00:57:52;5.30;;;2.70;;
67500;SDS011;54349;52.528;19.760;2022-09-09T01:00:29;5.10;;;2.80;;
67500;SDS011;54349;52.528;19.760;2022-09-09T01:03:18;5.00;;;2.60;;
67500;SDS011;54349;52.528;19.760;2022-09-09T01:05:54;5.10;;;2.90;;
67500;SDS011;54349;52.528;19.760;2022-09-09T01:17:24;5.30;;;2.60;;
67500;SDS011;54349;52.528;19.760;2022-09-09T01:20:23;4.20;;;2.40;;
67500;SDS011;54349;52.528;19.760;2022-09-09T01:26:17;5.10;;;2.90;;
67500;SDS011;54349;52.528;19.760;2022-09-09T01:28:51;5.10;;;2.70;;
67500;SDS011;54349;52.528;19.760;2022-09-09T01:32:00;5.70;;;2.80;;
67500;SDS011;54349;52.528;19.760;2022-09-09T01:34:33;5.90;;;2.80;;
67500;SDS011;54349;52.528;19.760;2022-09-09T01:37:07;4.60;;;2.70;;
67500;SDS011;54349;52.528;19.760;2022-09-09T01:39:41;5.80;;;2.80;;
67500;SDS011;54349;52.528;19.760;2022-09-09T01:42:16;5.20;;;2.80;;
67500;SDS011;54349;52.528;19.760;2022-09-09T01:44:45;5.40;;;2.90;;
67500;SDS011;54349;52.528;19.760;2022-09-09T01:47:14;4.40;;;2.80;;
67500;SDS011;54349;52.528;19.760;2022-09-09T01:49:56;5.90;;;2.70;;
67500;SDS011;54349;52.528;19.760;2022-09-09T01:52:35;5.90;;;3.00;;
67500;SDS011;54349;52.528;19.760;2022-09-09T01:55:07;4.80;;;2.80;;
67500;SDS011;54349;52.528;19.760;2022-09-09T01:58:09;5.00;;;2.70;;
67500;SDS011;54349;52.528;19.760;2022-09-09T02:03:57;5.00;;;2.90;;
67500;SDS011;54349;52.528;19.760;2022-09-09T02:06:37;5.00;;;2.70;;
67500;SDS011;54349;52.528;19.760;2022-09-09T02:09:19;5.60;;;3.00;;
67500;SDS011;54349;52.528;19.760;2022-09-09T02:11:57;5.90;;;3.00;;
67500;SDS011;54349;52.528;19.760;2022-09-09T02:14:47;6.30;;;2.90;;
67500;SDS011;54349;52.528;19.760;2022-09-09T02:17:37;4.90;;;2.80;;
67500;SDS011;54349;52.528;19.760;2022-09-09T02:20:15;4.80;;;2.70;;
67500;SDS011;54349;52.528;19.760;2022-09-09T02:22:50;5.60;;;3.00;;
67500;SDS011;54349;52.528;19.760;2022-09-09T02:25:23;6.00;;;3.20;;
67500;SDS011;54349;52.528;19.760;2022-09-09T02:27:57;5.30;;;2.90;;
67500;SDS011;54349;52.528;19.760;2022-09-09T02:30:30;5.20;;;2.80;;
67500;SDS011;54349;52.528;19.760;2022-09-09T02:33:03;6.80;;;3.10;;
67500;SDS011;54349;52.528;19.760;2022-09-09T02:35:50;4.90;;;3.10;;
67500;SDS011;54349;52.528;19.760;2022-09-09T02:38:21;7.40;;;3.30;;
67500;SDS011;54349;52.528;19.760;2022-09-09T02:41:01;6.80;;;3.00;;
67500;SDS011;54349;52.528;19.760;2022-09-09T02:43:34;5.30;;;3.20;;
67500;SDS011;54349;52.528;19.760;2022-09-09T02:49:04;5.60;;;3.00;;
67500;SDS011;54349;52.528;19.760;2022-09-09T02:54:26;5.40;;;2.90;;
67500;SDS011;54349;52.528;19.760;2022-09-09T02:57:11;4.90;;;2.80;;
67500;SDS011;54349;52.528;19.760;2022-09-09T02:59:45;5.80;;;3.10;;
67500;SDS011;54349;52.528;19.760;2022-09-09T03:02:15;6.40;;;3.30;;
67500;SDS011;54349;52.528;19.760;2022-09-09T03:04:45;6.00;;;2.90;;
67500;SDS011;54349;52.528;19.760;2022-09-09T03:07:19;6.00;;;3.30;;
67500;SDS011;54349;52.528;19.760;2022-09-09T03:09:48;6.20;;;3.20;;
67500;SDS011;54349;52.528;19.760;2022-09-09T03:12:17;6.30;;;3.20;;
67500;SDS011;54349;52.528;19.760;2022-09-09T03:14:45;5.80;;;3.30;;
67500;SDS011;54349;52.528;19.760;2022-09-09T03:17:14;5.70;;;2.90;;
67500;SDS011;54349;52.528;19.760;2022-09-09T03:19:48;4.90;;;3.10;;
67500;SDS011;54349;52.528;19.760;2022-09-09T03:22:17;5.80;;;3.30;;
67500;SDS011;54349;52.528;19.760;2022-09-09T03:24:46;5.60;;;3.10;;
67500;SDS011;54349;52.528;19.760;2022-09-09T03:27:14;5.90;;;3.10;;
67500;SDS011;54349;52.528;19.760;2022-09-09T03:29:43;5.40;;;3.00;;
67500;SDS011;54349;52.528;19.760;2022-09-09T03:32:14;5.60;;;3.20;;
67500;SDS011;54349;52.528;19.760;2022-09-09T03:34:45;5.00;;;3.10;;
67500;SDS011;54349;52.528;19.760;2022-09-09T03:37:20;5.70;;;3.10;;
67500;SDS011;54349;52.528;19.760;2022-09-09T03:39:49;5.90;;;3.30;;
67500;SDS011;54349;52.528;19.760;2022-09-09T03:42:17;6.30;;;3.50;;
67500;SDS011;54349;52.528;19.760;2022-09-09T03:44:48;6.10;;;3.40;;
67500;SDS011;54349;52.528;19.760;2022-09-09T03:47:19;5.70;;;3.60;;
67500;SDS011;54349;52.528;19.760;2022-09-09T03:49:50;8.80;;;3.60;;
67500;SDS011;54349;52.528;19.760;2022-09-09T03:52:18;6.10;;;3.50;;
67500;SDS011;54349;52.528;19.760;2022-09-09T03:54:52;5.90;;;3.40;;
67500;SDS011;54349;52.528;19.760;2022-09-09T03:57:21;5.50;;;3.10;;
67500;SDS011;54349;52.528;19.760;2022-09-09T03:59:49;7.00;;;3.40;;
67500;SDS011;54349;52.528;19.760;2022-09-09T04:02:18;6.00;;;3.50;;
67500;SDS011;54349;52.528;19.760;2022-09-09T04:04:46;6.70;;;3.30;;
67500;SDS011;54349;52.528;19.760;2022-09-09T04:07:15;5.80;;;3.50;;
67500;SDS011;54349;52.528;19.760;2022-09-09T04:09:43;6.60;;;3.90;;
67500;SDS011;54349;52.528;19.760;2022-09-09T04:12:14;7.70;;;3.60;;
67500;SDS011;54349;52.528;19.760;2022-09-09T04:14:42;6.50;;;3.40;;
67500;SDS011;54349;52.528;19.760;2022-09-09T04:17:10;7.80;;;3.60;;
67500;SDS011;54349;52.528;19.760;2022-09-09T04:19:38;5.70;;;3.30;;
67500;SDS011;54349;52.528;19.760;2022-09-09T04:22:08;6.70;;;3.10;;
67500;SDS011;54349;52.528;19.760;2022-09-09T04:24:37;5.80;;;3.70;;
67500;SDS011;54349;52.528;19.760;2022-09-09T04:27:05;7.70;;;3.30;;
67500;SDS011;54349;52.528;19.760;2022-09-09T04:29:34;6.50;;;3.50;;
67500;SDS011;54349;52.528;19.760;2022-09-09T04:32:02;6.10;;;3.30;;
67500;SDS011;54349;52.528;19.760;2022-09-09T04:34:30;6.00;;;3.20;;
67500;SDS011;54349;52.528;19.760;2022-09-09T04:36:59;7.00;;;3.30;;
67500;SDS011;54349;52.528;19.760;2022-09-09T04:39:28;5.70;;;3.40;;
67500;SDS011;54349;52.528;19.760;2022-09-09T04:41:58;6.70;;;3.80;;
67500;SDS011;54349;52.528;19.760;2022-09-09T04:44:26;5.90;;;3.40;;
67500;SDS011;54349;52.528;19.760;2022-09-09T04:46:54;7.80;;;3.70;;
67500;SDS011;54349;52.528;19.760;2022-09-09T04:49:23;7.50;;;3.70;;
67500;SDS011;54349;52.528;19.760;2022-09-09T04:51:51;5.60;;;3.30;;
67500;SDS011;54349;52.528;19.760;2022-09-09T04:54:20;6.40;;;3.60;;
67500;SDS011;54349;52.528;19.760;2022-09-09T04:56:50;8.10;;;3.90;;
67500;SDS011;54349;52.528;19.760;2022-09-09T04:59:18;5.90;;;3.40;;
67500;SDS011;54349;52.528;19.760;2022-09-09T05:01:49;6.10;;;3.80;;
67500;SDS011;54349;52.528;19.760;2022-09-09T05:04:18;7.50;;;3.80;;
67500;SDS011;54349;52.528;19.760;2022-09-09T05:06:47;6.00;;;3.60;;
67500;SDS011;54349;52.528;19.760;2022-09-09T05:09:16;6.00;;;3.60;;
67500;SDS011;54349;52.528;19.760;2022-09-09T05:11:44;7.20;;;4.20;;
67500;SDS011;54349;52.528;19.760;2022-09-09T05:14:22;6.90;;;3.90;;
67500;SDS011;54349;52.528;19.760;2022-09-09T05:16:50;7.60;;;3.60;;
67500;SDS011;54349;52.528;19.760;2022-09-09T05:19:19;6.70;;;3.80;;
67500;SDS011;54349;52.528;19.760;2022-09-09T05:21:49;10.30;;;4.20;;
67500;SDS011;54349;52.528;19.760;2022-09-09T05:24:21;8.20;;;4.40;;
67500;SDS011;54349;52.528;19.760;2022-09-09T05:26:52;10.20;;;4.40;;
67500;SDS011;54349;52.528;19.760;2022-09-09T05:29:21;14.90;;;4.80;;
67500;SDS011;54349;52.528;19.760;2022-09-09T05:31:49;11.90;;;4.10;;
67500;SDS011;54349;52.528;19.760;2022-09-09T05:34:19;9.30;;;4.20;;
67500;SDS011;54349;52.528;19.760;2022-09-09T05:36:49;13.10;;;4.70;;
67500;SDS011;54349;52.528;19.760;2022-09-09T05:39:18;15.40;;;5.00;;
67500;SDS011;54349;52.528;19.760;2022-09-09T05:41:46;12.60;;;4.50;;
67500;SDS011;54349;52.528;19.760;2022-09-09T05:44:15;12.20;;;4.70;;
67500;SDS011;54349;52.528;19.760;2022-09-09T05:46:43;13.60;;;4.90;;
67500;SDS011;54349;52.528;19.760;2022-09-09T05:49:13;12.80;;;4.50;;
67500;SDS011;54349;52.528;19.760;2022-09-09T05:51:43;12.40;;;4.80;;
67500;SDS011;54349;52.528;19.760;2022-09-09T05:54:13;12.60;;;4.40;;
67500;SDS011;54349;52.528;19.760;2022-09-09T05:56:46;12.20;;;4.30;;
67500;SDS011;54349;52.528;19.760;2022-09-09T05:59:19;12.50;;;4.80;;
67500;SDS011;54349;52.528;19.760;2022-09-09T06:01:50;17.50;;;4.90;;
67500;SDS011;54349;52.528;19.760;2022-09-09T06:04:39;11.80;;;4.90;;
67500;SDS011;54349;52.528;19.760;2022-09-09T06:07:08;12.30;;;4.60;;
67500;SDS011;54349;52.528;19.760;2022-09-09T06:09:36;12.00;;;4.90;;
67500;SDS011;54349;52.528;19.760;2022-09-09T06:12:07;10.70;;;4.80;;
67500;SDS011;54349;52.528;19.760;2022-09-09T06:14:35;12.70;;;5.20;;
67500;SDS011;54349;52.528;19.760;2022-09-09T06:17:06;10.30;;;4.40;;
67500;SDS011;54349;52.528;19.760;2022-09-09T06:19:36;10.20;;;4.40;;
67500;SDS011;54349;52.528;19.760;2022-09-09T06:22:04;10.30;;;4.90;;
67500;SDS011;54349;52.528;19.760;2022-09-09T06:24:34;11.90;;;4.70;;
67500;SDS011;54349;52.528;19.760;2022-09-09T06:27:03;10.60;;;4.70;;
67500;SDS011;54349;52.528;19.760;2022-09-09T06:29:34;13.00;;;5.00;;
67500;SDS011;54349;52.528;19.760;2022-09-09T06:32:03;11.10;;;4.90;;
67500;SDS011;54349;52.528;19.760;2022-09-09T06:34:31;13.30;;;4.80;;
67500;SDS011;54349;52.528;19.760;2022-09-09T06:37:00;10.90;;;5.00;;
67500;SDS011;54349;52.528;19.760;2022-09-09T06:39:38;10.70;;;4.10;;
67500;SDS011;54349;52.528;19.760;2022-09-09T06:42:07;10.30;;;4.90;;
67500;SDS011;54349;52.528;19.760;2022-09-09T06:44:43;10.00;;;4.60;;
67500;SDS011;54349;52.528;19.760;2022-09-09T06:47:15;11.60;;;4.80;;
67500;SDS011;54349;52.528;19.760;2022-09-09T06:49:44;11.00;;;4.80;;
67500;SDS011;54349;52.528;19.760;2022-09-09T06:52:15;9.50;;;4.40;;
67500;SDS011;54349;52.528;19.760;2022-09-09T06:54:46;10.30;;;4.70;;
67500;SDS011;54349;52.528;19.760;2022-09-09T06:57:15;10.70;;;4.00;;
67500;SDS011;54349;52.528;19.760;2022-09-09T07:00:05;9.40;;;4.20;;
67500;SDS011;54349;52.528;19.760;2022-09-09T07:02:35;8.20;;;4.20;;
67500;SDS011;54349;52.528;19.760;2022-09-09T07:05:07;8.50;;;4.10;;
67500;SDS011;54349;52.528;19.760;2022-09-09T07:07:36;10.40;;;4.50;;
67500;SDS011;54349;52.528;19.760;2022-09-09T07:10:05;9.60;;;4.70;;
67500;SDS011;54349;52.528;19.760;2022-09-09T07:12:33;9.10;;;4.30;;
67500;SDS011;54349;52.528;19.760;2022-09-09T07:15:03;11.80;;;4.70;;
67500;SDS011;54349;52.528;19.760;2022-09-09T07:17:31;10.30;;;4.00;;
67500;SDS011;54349;52.528;19.760;2022-09-09T07:19:59;9.50;;;4.30;;
67500;SDS011;54349;52.528;19.760;2022-09-09T07:22:29;10.40;;;4.60;;
67500;SDS011;54349;52.528;19.760;2022-09-09T07:24:57;10.10;;;4.80;;
67500;SDS011;54349;52.528;19.760;2022-09-09T07:27:25;10.20;;;4.50;;
67500;SDS011;54349;52.528;19.760;2022-09-09T07:29:54;9.40;;;4.30;;
67500;SDS011;54349;52.528;19.760;2022-09-09T07:32:25;9.40;;;4.60;;
67500;SDS011;54349;52.528;19.760;2022-09-09T07:34:53;9.60;;;4.10;;
67500;SDS011;54349;52.528;19.760;2022-09-09T07:37:21;8.70;;;4.30;;
67500;SDS011;54349;52.528;19.760;2022-09-09T07:39:50;9.10;;;4.30;;
67500;SDS011;54349;52.528;19.760;2022-09-09T07:42:19;9.00;;;4.40;;
67500;SDS011;54349;52.528;19.760;2022-09-09T07:44:48;10.90;;;4.50;;
67500;SDS011;54349;52.528;19.760;2022-09-09T07:47:16;8.10;;;4.20;;
67500;SDS011;54349;52.528;19.760;2022-09-09T07:49:47;8.50;;;4.20;;
67500;SDS011;54349;52.528;19.760;2022-09-09T07:52:22;8.80;;;4.10;;
67500;SDS011;54349;52.528;19.760;2022-09-09T07:54:55;9.10;;;4.40;;
67500;SDS011;54349;52.528;19.760;2022-09-09T07:57:24;9.30;;;4.60;;
67500;SDS011;54349;52.528;19.760;2022-09-09T07:59:53;7.50;;;4.00;;
67500;SDS011;54349;52.528;19.760;2022-09-09T08:02:25;10.40;;;4.00;;
67500;SDS011;54349;52.528;19.760;2022-09-09T08:04:56;7.10;;;4.10;;
67500;SDS011;54349;52.528;19.760;2022-09-09T08:07:24;9.50;;;4.00;;
67500;SDS011;54349;52.528;19.760;2022-09-09T08:09:54;10.30;;;4.40;;
67500;SDS011;54349;52.528;19.760;2022-09-09T08:12:30;9.40;;;4.00;;
67500;SDS011;54349;52.528;19.760;2022-09-09T08:15:04;8.40;;;4.10;;
67500;SDS011;54349;52.528;19.760;2022-09-09T08:17:33;8.30;;;4.10;;
67500;SDS011;54349;52.528;19.760;2022-09-09T08:20:05;8.70;;;4.10;;
67500;SDS011;54349;52.528;19.760;2022-09-09T08:22:34;9.40;;;4.10;;
67500;SDS011;54349;52.528;19.760;2022-09-09T08:25:03;9.80;;;4.60;;
67500;SDS011;54349;52.528;19.760;2022-09-09T08:27:35;7.10;;;4.20;;
67500;SDS011;54349;52.528;19.760;2022-09-09T08:30:04;7.50;;;4.00;;
67500;SDS011;54349;52.528;19.760;2022-09-09T08:32:34;6.80;;;4.00;;
67500;SDS011;54349;52.528;19.760;2022-09-09T08:35:08;8.10;;;4.00;;
67500;SDS011;54349;52.528;19.760;2022-09-09T08:37:38;7.60;;;3.90;;
67500;SDS011;54349;52.528;19.760;2022-09-09T08:40:10;9.10;;;4.00;;
67500;SDS011;54349;52.528;19.760;2022-09-09T08:42:52;6.70;;;3.40;;
67500;SDS011;54349;52.528;19.760;2022-09-09T08:45:33;8.00;;;4.00;;
67500;SDS011;54349;52.528;19.760;2022-09-09T08:48:19;7.60;;;4.00;;
67500;SDS011;54349;52.528;19.760;2022-09-09T08:51:05;9.00;;;4.10;;
67500;SDS011;54349;52.528;19.760;2022-09-09T08:53:48;7.70;;;3.60;;
67500;SDS011;54349;52.528;19.760;2022-09-09T08:56:25;8.80;;;4.50;;
67500;SDS011;54349;52.528;19.760;2022-09-09T08:59:00;9.50;;;4.10;;
67500;SDS011;54349;52.528;19.760;2022-09-09T09:16:41;7.20;;;3.80;;
67500;SDS011;54349;52.528;19.760;2022-09-09T09:19:39;7.70;;;3.70;;
67500;SDS011;54349;52.528;19.760;2022-09-09T09:22:24;7.80;;;4.00;;
67500;SDS011;54349;52.528;19.760;2022-09-09T09:28:02;7.60;;;3.70;;
67500;SDS011;54349;52.528;19.760;2022-09-09T09:30:51;7.10;;;3.70;;
67500;SDS011;54349;52.528;19.760;2022-09-09T09:36:20;7.40;;;4.00;;
67500;SDS011;54349;52.528;19.760;2022-09-09T09:39:02;7.30;;;4.00;;
67500;SDS011;54349;52.528;19.760;2022-09-09T09:41:53;7.30;;;3.80;;
67500;SDS011;54349;52.528;19.760;2022-09-09T09:44:28;6.90;;;3.50;;
67500;SDS011;54349;52.528;19.760;2022-09-09T09:47:15;8.20;;;3.90;;
67500;SDS011;54349;52.528;19.760;2022-09-09T09:50:19;6.40;;;3.70;;
67500;SDS011;54349;52.528;19.760;2022-09-09T09:52:59;6.60;;;3.80;;
67500;SDS011;54349;52.528;19.760;2022-09-09T09:55:36;6.10;;;3.80;;
67500;SDS011;54349;52.528;19.760;2022-09-09T09:58:15;6.70;;;3.90;;
67500;SDS011;54349;52.528;19.760;2022-09-09T10:00:52;7.70;;;3.90;;
67500;SDS011;54349;52.528;19.760;2022-09-09T10:03:32;6.50;;;3.50;;
67500;SDS011;54349;52.528;19.760;2022-09-09T10:06:08;6.00;;;3.40;;
67500;SDS011;54349;52.528;19.760;2022-09-09T10:08:45;7.10;;;3.80;;
67500;SDS011;54349;52.528;19.760;2022-09-09T10:14:17;6.30;;;3.60;;
67500;SDS011;54349;52.528;19.760;2022-09-09T10:20:39;6.40;;;3.40;;
67500;SDS011;54349;52.528;19.760;2022-09-09T10:23:41;6.10;;;3.50;;
67500;SDS011;54349;52.528;19.760;2022-09-09T10:41:16;8.40;;;4.30;;
67500;SDS011;54349;52.528;19.760;2022-09-09T10:55:49;6.40;;;3.30;;
67500;SDS011;54349;52.528;19.760;2022-09-09T10:58:29;7.70;;;4.20;;
67500;SDS011;54349;52.528;19.760;2022-09-09T11:01:12;7.20;;;3.90;;
67500;SDS011;54349;52.528;19.760;2022-09-09T11:07:10;7.30;;;3.80;;
67500;SDS011;54349;52.528;19.760;2022-09-09T11:09:56;7.30;;;3.90;;
67500;SDS011;54349;52.528;19.760;2022-09-09T11:12:31;7.20;;;3.70;;
67500;SDS011;54349;52.528;19.760;2022-09-09T11:15:12;7.00;;;3.60;;
67500;SDS011;54349;52.528;19.760;2022-09-09T11:17:50;6.00;;;3.40;;
67500;SDS011;54349;52.528;19.760;2022-09-09T11:20:22;6.90;;;3.80;;
67500;SDS011;54349;52.528;19.760;2022-09-09T11:25:49;6.40;;;3.40;;
67500;SDS011;54349;52.528;19.760;2022-09-09T11:40:23;5.80;;;3.30;;
67500;SDS011;54349;52.528;19.760;2022-09-09T11:43:15;6.30;;;3.20;;
67500;SDS011;54349;52.528;19.760;2022-09-09T11:45:55;5.80;;;2.90;;
67500;SDS011;54349;52.528;19.760;2022-09-09T11:48:32;7.80;;;3.60;;
67500;SDS011;54349;52.528;19.760;2022-09-09T11:53:32;5.70;;;3.20;;
67500;SDS011;54349;52.528;19.760;2022-09-09T11:58:38;6.30;;;3.40;;
67500;SDS011;54349;52.528;19.760;2022-09-09T12:01:35;6.70;;;3.30;;
67500;SDS011;54349;52.528;19.760;2022-09-09T12:06:59;6.10;;;3.30;;
67500;SDS011;54349;52.528;19.760;2022-09-09T12:12:38;7.40;;;3.70;;
67500;SDS011;54349;52.528;19.760;2022-09-09T12:17:45;7.30;;;4.00;;
67500;SDS011;54349;52.528;19.760;2022-09-09T12:20:37;8.10;;;3.90;;
67500;SDS011;54349;52.528;19.760;2022-09-09T12:23:30;6.70;;;3.80;;
67500;SDS011;54349;52.528;19.760;2022-09-09T12:28:52;7.20;;;4.10;;
67500;SDS011;54349;52.528;19.760;2022-09-09T12:34:38;6.20;;;4.00;;
67500;SDS011;54349;52.528;19.760;2022-09-09T12:37:27;9.90;;;3.80;;
67500;SDS011;54349;52.528;19.760;2022-09-09T12:40:06;7.60;;;3.90;;
67500;SDS011;54349;52.528;19.760;2022-09-09T12:42:39;6.90;;;3.90;;
67500;SDS011;54349;52.528;19.760;2022-09-09T12:45:20;6.30;;;3.70;;
67500;SDS011;54349;52.528;19.760;2022-09-09T12:48:02;6.30;;;3.60;;
67500;SDS011;54349;52.528;19.760;2022-09-09T12:50:38;7.00;;;3.70;;
67500;SDS011;54349;52.528;19.760;2022-09-09T12:53:25;7.40;;;3.90;;
67500;SDS011;54349;52.528;19.760;2022-09-09T12:56:02;6.50;;;3.90;;
67500;SDS011;54349;52.528;19.760;2022-09-09T12:58:32;7.10;;;3.80;;
67500;SDS011;54349;52.528;19.760;2022-09-09T13:01:03;5.70;;;3.60;;
67500;SDS011;54349;52.528;19.760;2022-09-09T13:03:42;6.00;;;3.60;;
67500;SDS011;54349;52.528;19.760;2022-09-09T13:06:22;6.00;;;3.60;;
67500;SDS011;54349;52.528;19.760;2022-09-09T13:08:57;5.90;;;3.80;;
67500;SDS011;54349;52.528;19.760;2022-09-09T13:11:35;6.90;;;3.70;;
67500;SDS011;54349;52.528;19.760;2022-09-09T13:14:29;5.50;;;3.60;;
67500;SDS011;54349;52.528;19.760;2022-09-09T13:17:01;7.00;;;3.80;;
67500;SDS011;54349;52.528;19.760;2022-09-09T13:19:37;6.90;;;3.60;;
67500;SDS011;54349;52.528;19.760;2022-09-09T13:22:20;5.80;;;3.10;;
67500;SDS011;54349;52.528;19.760;2022-09-09T13:25:20;5.70;;;3.40;;
67500;SDS011;54349;52.528;19.760;2022-09-09T13:28:01;6.90;;;3.70;;
67500;SDS011;54349;52.528;19.760;2022-09-09T13:30:33;5.60;;;3.40;;
67500;SDS011;54349;52.528;19.760;2022-09-09T13:35:54;5.70;;;3.30;;
67500;SDS011;54349;52.528;19.760;2022-09-09T13:41:25;6.20;;;3.60;;
67500;SDS011;54349;52.528;19.760;2022-09-09T13:44:03;6.30;;;3.70;;
67500;SDS011;54349;52.528;19.760;2022-09-09T13:46:36;6.10;;;3.70;;
67500;SDS011;54349;52.528;19.760;2022-09-09T13:54:16;5.90;;;3.70;;
67500;SDS011;54349;52.528;19.760;2022-09-09T13:56:46;6.20;;;3.30;;
67500;SDS011;54349;52.528;19.760;2022-09-09T13:59:18;6.20;;;3.90;;
67500;SDS011;54349;52.528;19.760;2022-09-09T14:02:10;6.00;;;3.80;;
67500;SDS011;54349;52.528;19.760;2022-09-09T14:04:38;6.50;;;3.90;;
67500;SDS011;54349;52.528;19.760;2022-09-09T14:07:12;6.30;;;3.90;;
67500;SDS011;54349;52.528;19.760;2022-09-09T14:09:41;7.60;;;4.30;;
67500;SDS011;54349;52.528;19.760;2022-09-09T14:12:13;22.70;;;8.00;;
67500;SDS011;54349;52.528;19.760;2022-09-09T14:14:43;68.90;;;18.90;;
67500;SDS011;54349;52.528;19.760;2022-09-09T14:17:11;104.60;;;28.40;;
67500;SDS011;54349;52.528;19.760;2022-09-09T14:19:39;128.50;;;32.60;;
67500;SDS011;54349;52.528;19.760;2022-09-09T14:22:08;149.00;;;39.50;;
67500;SDS011;54349;52.528;19.760;2022-09-09T14:24:36;137.60;;;39.40;;
67500;SDS011;54349;52.528;19.760;2022-09-09T14:27:04;157.20;;;40.60;;
67500;SDS011;54349;52.528;19.760;2022-09-09T14:29:32;154.30;;;41.30;;
67500;SDS011;54349;52.528;19.760;2022-09-09T14:32:01;150.00;;;40.60;;
67500;SDS011;54349;52.528;19.760;2022-09-09T14:34:29;149.10;;;40.90;;
67500;SDS011;54349;52.528;19.760;2022-09-09T14:37:00;138.90;;;39.00;;
67500;SDS011;54349;52.528;19.760;2022-09-09T14:39:31;132.30;;;39.60;;
67500;SDS011;54349;52.528;19.760;2022-09-09T14:41:59;134.90;;;39.40;;
67500;SDS011;54349;52.528;19.760;2022-09-09T14:44:28;131.60;;;40.60;;
67500;SDS011;54349;52.528;19.760;2022-09-09T14:46:56;129.20;;;38.50;;
67500;SDS011;54349;52.528;19.760;2022-09-09T14:49:26;130.70;;;40.30;;
67500;SDS011;54349;52.528;19.760;2022-09-09T14:51:54;125.30;;;39.50;;
67500;SDS011;54349;52.528;19.760;2022-09-09T14:54:22;110.10;;;37.60;;
67500;SDS011;54349;52.528;19.760;2022-09-09T14:56:50;123.20;;;39.80;;
67500;SDS011;54349;52.528;19.760;2022-09-09T14:59:18;124.50;;;40.20;;
67500;SDS011;54349;52.528;19.760;2022-09-09T15:01:47;135.70;;;39.20;;
67500;SDS011;54349;52.528;19.760;2022-09-09T15:04:15;120.70;;;38.30;;
67500;SDS011;54349;52.528;19.760;2022-09-09T15:06:44;117.90;;;37.90;;
67500;SDS011;54349;52.528;19.760;2022-09-09T15:09:16;109.70;;;36.80;;
67500;SDS011;54349;52.528;19.760;2022-09-09T15:11:44;112.20;;;37.10;;
67500;SDS011;54349;52.528;19.760;2022-09-09T15:14:12;116.70;;;36.60;;
67500;SDS011;54349;52.528;19.760;2022-09-09T15:16:41;103.70;;;35.80;;
67500;SDS011;54349;52.528;19.760;2022-09-09T15:19:10;99.10;;;36.30;;
67500;SDS011;54349;52.528;19.760;2022-09-09T15:21:38;106.10;;;36.20;;
67500;SDS011;54349;52.528;19.760;2022-09-09T15:24:07;104.30;;;36.50;;
67500;SDS011;54349;52.528;19.760;2022-09-09T15:26:37;97.00;;;34.90;;
67500;SDS011;54349;52.528;19.760;2022-09-09T15:29:08;96.30;;;33.70;;
67500;SDS011;54349;52.528;19.760;2022-09-09T15:31:37;98.80;;;35.20;;
67500;SDS011;54349;52.528;19.760;2022-09-09T15:34:06;95.50;;;34.60;;
67500;SDS011;54349;52.528;19.760;2022-09-09T15:36:43;93.00;;;33.30;;
67500;SDS011;54349;52.528;19.760;2022-09-09T15:39:16;96.70;;;34.40;;
67500;SDS011;54349;52.528;19.760;2022-09-09T15:41:46;97.80;;;34.90;;
67500;SDS011;54349;52.528;19.760;2022-09-09T15:44:17;98.40;;;33.80;;
67500;SDS011;54349;52.528;19.760;2022-09-09T15:46:52;87.90;;;33.30;;
67500;SDS011;54349;52.528;19.760;2022-09-09T15:49:25;86.90;;;33.00;;
67500;SDS011;54349;52.528;19.760;2022-09-09T15:51:57;90.40;;;32.70;;
67500;SDS011;54349;52.528;19.760;2022-09-09T15:54:26;87.60;;;31.60;;
67500;SDS011;54349;52.528;19.760;2022-09-09T15:56:57;85.60;;;31.80;;
67500;SDS011;54349;52.528;19.760;2022-09-09T15:59:32;86.00;;;31.70;;
67500;SDS011;54349;52.528;19.760;2022-09-09T16:02:02;80.60;;;30.60;;
67500;SDS011;54349;52.528;19.760;2022-09-09T16:04:31;82.00;;;29.80;;
67500;SDS011;54349;52.528;19.760;2022-09-09T16:07:02;81.80;;;30.20;;
67500;SDS011;54349;52.528;19.760;2022-09-09T16:09:33;79.60;;;30.80;;
67500;SDS011;54349;52.528;19.760;2022-09-09T16:12:04;72.10;;;28.70;;
67500;SDS011;54349;52.528;19.760;2022-09-09T16:17:06;73.00;;;27.10;;
67500;SDS011;54349;52.528;19.760;2022-09-09T16:19:34;63.00;;;28.10;;
67500;SDS011;54349;52.528;19.760;2022-09-09T16:22:04;69.20;;;27.50;;
67500;SDS011;54349;52.528;19.760;2022-09-09T16:24:34;64.60;;;26.60;;
67500;SDS011;54349;52.528;19.760;2022-09-09T16:27:02;63.80;;;26.80;;
67500;SDS011;54349;52.528;19.760;2022-09-09T16:29:31;64.40;;;26.50;;
67500;SDS011;54349;52.528;19.760;2022-09-09T16:32:00;66.70;;;26.70;;
67500;SDS011;54349;52.528;19.760;2022-09-09T16:34:31;64.90;;;27.00;;
67500;SDS011;54349;52.528;19.760;2022-09-09T16:37:01;62.60;;;26.00;;
67500;SDS011;54349;52.528;19.760;2022-09-09T16:39:29;58.60;;;25.80;;
67500;SDS011;54349;52.528;19.760;2022-09-09T16:41:58;56.40;;;25.90;;
67500;SDS011;54349;52.528;19.760;2022-09-09T16:44:27;60.40;;;25.10;;
67500;SDS011;54349;52.528;19.760;2022-09-09T16:46:56;57.50;;;24.70;;
67500;SDS011;54349;52.528;19.760;2022-09-09T16:49:27;54.60;;;25.20;;
67500;SDS011;54349;52.528;19.760;2022-09-09T16:51:59;59.00;;;24.30;;
67500;SDS011;54349;52.528;19.760;2022-09-09T16:54:27;54.20;;;24.20;;
67500;SDS011;54349;52.528;19.760;2022-09-09T16:56:59;53.50;;;23.90;;
67500;SDS011;54349;52.528;19.760;2022-09-09T16:59:28;55.10;;;24.30;;
67500;SDS011;54349;52.528;19.760;2022-09-09T17:01:56;47.90;;;23.80;;
67500;SDS011;54349;52.528;19.760;2022-09-09T17:04:27;51.60;;;23.20;;
67500;SDS011;54349;52.528;19.760;2022-09-09T17:06:55;52.30;;;23.60;;
67500;SDS011;54349;52.528;19.760;2022-09-09T17:09:25;52.60;;;23.90;;
67500;SDS011;54349;52.528;19.760;2022-09-09T17:11:57;48.60;;;22.80;;
67500;SDS011;54349;52.528;19.760;2022-09-09T17:14:26;51.70;;;23.20;;
67500;SDS011;54349;52.528;19.760;2022-09-09T17:16:54;46.90;;;22.70;;
67500;SDS011;54349;52.528;19.760;2022-09-09T17:19:35;46.20;;;21.80;;
67500;SDS011;54349;52.528;19.760;2022-09-09T17:22:04;42.90;;;21.20;;
67500;SDS011;54349;52.528;19.760;2022-09-09T17:24:44;49.80;;;22.10;;
67500;SDS011;54349;52.528;19.760;2022-09-09T17:27:13;51.70;;;22.40;;
67500;SDS011;54349;52.528;19.760;2022-09-09T17:29:41;47.80;;;21.00;;
67500;SDS011;54349;52.528;19.760;2022-09-09T17:32:09;45.30;;;21.80;;